Millenium Air

Millenium Air Since 1998



 METAR AND TAF INFORMATION
METAR FOR LICC
ADDS - METARS form results

(2057 UTC 22 October 2020)
Data provider http://aviationweather.gov/metar/data/
 
METAR text: LICC 222050Z 28006KT CAVOK 14/13 Q1024
Conditions at: LICC (CATANIA/FONTANAR, IT) observed 2050 UTC 22 October 2020
Temperature: 14.0°C (57°F)
Dewpoint: 13.0°C (55°F) [RH = 94%]
Pressure (altimeter): 30.24 inches Hg (1024.0 mb)
Winds: from the W (280 degrees) at 7 MPH (6 knots; 3.1 m/s)
Visibility: 6 or more miles (10+ km)
Ceiling: ceiling and visibility are OK
Clouds: unknown
Weather: no significant weather observed at this time

METAR text: LICC 222020Z 25008KT CAVOK 15/13 Q1024
Conditions at: LICC (CATANIA/FONTANAR, IT) observed 2020 UTC 22 October 2020
Temperature: 15.0°C (59°F)
Dewpoint: 13.0°C (55°F) [RH = 88%]
Pressure (altimeter): 30.24 inches Hg (1024.0 mb)
Winds: from the WSW (250 degrees) at 9 MPH (8 knots; 4.1 m/s)
Visibility: 6 or more miles (10+ km)
Ceiling: ceiling and visibility are OK
Clouds: unknown
Weather: no significant weather observed at this time

Forecast for: LICC (CATANIA/FONTANAR, IT)
Text: TAF LICC 221700Z 2218/2318 VRB05KT 9999 FEW040
Forecast period: 1800 UTC 22 October 2020 to 1000 UTC 23 October 2020
Forecast type: FROM: standard forecast or significant change
Winds: variable direction winds at 6 MPH (5 knots; 2.6 m/s)
Visibility: 6 or more miles (10+ km)
Ceiling: at least 12,000 feet AGL
Clouds: few clouds at 4000 feet AGL
Weather: no significant weather forecast for this period
Text: BECMG 2310/2312 08010KT
Forecast period: 1000 to 1800 UTC 23 October 2020
Forecast type: BECOMING: Conditions expected to become as follows by 1200 UTC 23 October 2020
Winds: from the E (80 degrees) at 12 MPH (10 knots; 5.1 m/s)
Visibility: 6 or more miles (10+ km)
Ceiling: at least 12,000 feet AGL
Clouds: few clouds at 4000 feet AGL
Weather: no significant weather forecast for this period

 AIRPORT MAP

 RUNWAY INFORMATION
Runway 08 Runway length 7989 ft Runway width 148 ft
Runway elevation 37 ft Runway displaced threshold 312 ft Runway heading 84
Runway 26 Runway length 7989 ft Runway width 148 ft
Runway elevation 17 ft Runway displaced threshold 279 ft Runway heading 264

 AIRPORT FREQUENCIES
Type APP Name APP Frequency 119.25 MHZ
Type DIR Name DIRECTOR Frequency 120.8 MHZ
Type GND Name GND Frequency 129.725 MHZ
Type TWR Name TWR Frequency 118.7 MHZ

 AIRPORT NEAR NAVIGATION AIDS
Type NDB Name Catania Frequency 345 KHZ
Type VOR-DME Name Catania Fontanarossa Frequency 116250 KHZ
Type NDB Name Catania Fontanarossa Frequency 407 KHZ